createdAt,value
2019-02-14T00:00:44.533Z,101797.23
2019-02-14T00:03:19.863Z,101802.83
2019-02-14T00:05:50.942Z,101800.15
2019-02-14T00:08:25.104Z,101805.20
2019-02-14T00:10:56.884Z,101807.36
2019-02-14T00:13:39.874Z,101797.03
2019-02-14T00:16:16.318Z,101800.08
2019-02-14T00:18:48.341Z,101798.76
2019-02-14T00:21:28.615Z,101797.62
2019-02-14T00:24:01.758Z,101795.42
2019-02-14T00:26:37.800Z,101796.66
2019-02-14T00:29:08.054Z,101798.72
2019-02-14T00:31:51.558Z,101802.77
2019-02-14T00:34:22.635Z,101788.31
2019-02-14T00:36:54.245Z,101793.23
2019-02-14T00:39:26.950Z,101795.35
2019-02-14T00:42:03.710Z,101774.61
2019-02-14T00:44:36.171Z,101795.53
2019-02-14T00:47:16.667Z,101793.26
2019-02-14T00:49:48.088Z,101791.38
2019-02-14T00:52:17.940Z,101789.94
2019-02-14T00:54:47.899Z,101791.47
2019-02-14T00:57:24.600Z,101790.05
2019-02-14T00:59:58.124Z,101787.00
2019-02-14T01:02:30.802Z,101787.94
2019-02-14T01:05:04.039Z,101783.22
2019-02-14T01:07:34.844Z,101783.22
2019-02-14T01:10:05.300Z,101784.94
2019-02-14T01:12:40.901Z,101787.68
2019-02-14T01:15:15.123Z,101777.34
2019-02-14T01:17:46.578Z,101779.17
2019-02-14T01:20:18.414Z,101774.53
2019-02-14T01:22:53.555Z,101781.82
2019-02-14T01:25:24.250Z,101785.80
2019-02-14T01:27:59.079Z,101788.15
2019-02-14T01:30:28.958Z,101777.17
2019-02-14T01:32:58.940Z,101779.53
2019-02-14T01:35:29.186Z,101772.91
2019-02-14T01:38:02.914Z,101773.66
2019-02-14T01:40:38.653Z,101767.78
2019-02-14T01:43:08.515Z,101767.31
2019-02-14T01:45:41.420Z,101767.52
2019-02-14T01:48:11.178Z,101770.34
2019-02-14T01:50:44.564Z,101780.67
2019-02-14T01:53:17.172Z,101784.08
2019-02-14T01:55:54.155Z,101779.27
2019-02-14T01:58:29.101Z,101777.25
2019-02-14T02:00:58.823Z,101781.42
2019-02-14T02:03:31.221Z,101772.61
2019-02-14T02:06:11.467Z,101787.33
2019-02-14T02:08:42.159Z,101779.75
2019-02-14T02:11:20.357Z,101782.58
2019-02-14T02:13:50.356Z,101774.09
2019-02-14T02:16:23.209Z,101774.09
2019-02-14T02:18:52.993Z,101777.23
2019-02-14T02:21:23.971Z,101790.30
2019-02-14T02:26:48.827Z,101796.09
2019-02-14T02:29:18.801Z,101790.22
2019-02-14T02:31:51.653Z,101787.96
2019-02-14T02:34:21.922Z,101781.31
2019-02-14T02:36:54.489Z,101785.74
2019-02-14T02:39:25.593Z,101778.64
2019-02-14T02:41:55.840Z,101775.28
2019-02-14T02:44:29.986Z,101785.30
2019-02-14T02:47:00.593Z,101786.41
2019-02-14T02:49:31.705Z,101798.88
2019-02-14T02:52:01.698Z,101798.95
2019-02-14T02:54:32.656Z,101797.07
2019-02-14T02:57:04.797Z,101794.83
2019-02-14T02:59:38.409Z,101800.52
2019-02-14T03:02:08.621Z,101791.03
2019-02-14T03:04:42.117Z,101789.13
2019-02-14T03:07:15.178Z,101794.12
2019-02-14T03:09:46.423Z,101798.95
2019-02-14T03:12:17.371Z,101792.63
2019-02-14T03:14:49.112Z,101793.14
2019-02-14T03:17:21.268Z,101796.77
2019-02-14T03:19:56.562Z,101794.36
2019-02-14T03:22:30.091Z,101791.60
2019-02-14T03:25:15.220Z,101798.02
2019-02-14T03:27:50.042Z,101799.93
2019-02-14T03:30:20.113Z,101796.30
2019-02-14T03:32:52.209Z,101792.02
2019-02-14T03:35:23.153Z,101791.02
2019-02-14T03:37:56.238Z,101794.77
2019-02-14T03:40:30.995Z,101793.44
2019-02-14T03:43:03.144Z,101798.80
2019-02-14T03:45:37.084Z,101806.83
2019-02-14T03:48:09.397Z,101797.06
2019-02-14T03:50:45.439Z,101797.35
2019-02-14T03:53:28.124Z,101791.41
2019-02-14T03:56:10.509Z,101798.55
2019-02-14T03:58:54.056Z,101798.48
2019-02-14T04:01:37.709Z,101800.05
2019-02-14T04:04:25.224Z,101778.14
2019-02-14T04:07:09.782Z,101805.32
2019-02-14T04:09:47.287Z,101809.02
2019-02-14T04:12:23.034Z,101809.17
2019-02-14T04:14:55.660Z,101812.00
2019-02-14T04:17:30.793Z,101815.50
2019-02-14T04:20:13.334Z,101816.42
2019-02-14T04:22:45.829Z,101811.01
2019-02-14T04:25:27.808Z,101812.89
2019-02-14T04:28:11.679Z,101825.25
2019-02-14T04:31:01.009Z,101817.16
2019-02-14T04:33:37.611Z,101814.28
2019-02-14T04:36:18.667Z,101809.91
2019-02-14T04:38:49.682Z,101811.80
2019-02-14T04:41:31.325Z,101809.23
2019-02-14T04:44:11.215Z,101812.56
2019-02-14T04:47:05.992Z,101806.98
2019-02-14T04:49:45.752Z,101810.55
2019-02-14T04:52:34.538Z,101809.52
2019-02-14T04:55:23.838Z,101817.09
2019-02-14T04:57:57.050Z,101813.13
2019-02-14T05:00:30.981Z,101813.59
2019-02-14T05:03:06.172Z,101814.98
2019-02-14T05:05:46.484Z,101818.64
2019-02-14T05:08:23.740Z,101816.30
2019-02-14T05:10:55.174Z,101822.38
2019-02-14T05:13:37.044Z,101826.41
2019-02-14T05:16:08.575Z,101828.59
2019-02-14T05:18:46.700Z,101831.39
2019-02-14T05:21:26.899Z,101827.20
2019-02-14T05:24:13.207Z,101819.67
2019-02-14T05:26:49.770Z,101829.45
2019-02-14T05:29:27.547Z,101834.63
2019-02-14T05:32:13.041Z,101842.56
2019-02-14T05:34:57.116Z,101839.55
2019-02-14T05:37:34.110Z,101832.95
2019-02-14T05:40:11.340Z,101836.09
2019-02-14T05:42:48.884Z,101838.82
2019-02-14T05:45:29.810Z,101840.52
2019-02-14T05:48:13.018Z,101836.44
2019-02-14T05:50:58.752Z,101833.80
2019-02-14T05:53:33.170Z,101830.24
2019-02-14T05:56:03.095Z,101829.09
2019-02-14T05:58:33.599Z,101822.42
2019-02-14T06:01:10.515Z,101822.42
2019-02-14T06:03:47.200Z,101829.73
2019-02-14T06:06:27.120Z,101837.55
2019-02-14T06:08:58.434Z,101836.58
2019-02-14T06:13:55.400Z,101842.84
2019-02-14T06:16:45.340Z,101847.72
2019-02-14T06:19:38.159Z,101845.44
2019-02-14T06:22:18.412Z,101840.13
2019-02-14T06:25:09.341Z,101847.11
2019-02-14T06:27:40.795Z,101856.69
2019-02-14T06:30:38.864Z,101856.35
2019-02-14T06:33:28.523Z,101845.67
2019-02-14T06:36:14.251Z,101847.84
2019-02-14T06:42:07.981Z,101846.86
2019-02-14T06:44:51.099Z,101858.45
2019-02-14T06:47:40.005Z,101858.45
2019-02-14T06:53:34.524Z,101869.42
2019-02-14T06:56:05.318Z,101868.30
2019-02-14T06:58:54.835Z,101871.86
2019-02-14T07:01:47.785Z,101877.34
2019-02-14T07:07:21.636Z,101890.75
2019-02-14T07:10:11.788Z,101895.89
2019-02-14T07:15:48.810Z,101910.95
2019-02-14T07:25:13.754Z,101915.27
2019-02-14T07:28:02.702Z,101933.17
2019-02-14T07:37:14.868Z,101923.14
2019-02-14T07:40:07.051Z,101917.84
2019-02-14T07:43:01.845Z,101926.15
2019-02-14T07:45:35.686Z,101923.81
2019-02-14T07:48:27.816Z,101930.16
2019-02-14T07:51:00.224Z,101934.52
2019-02-14T07:53:30.169Z,101931.50
2019-02-14T07:59:24.005Z,101944.33
2019-02-14T08:01:53.854Z,101954.23
2019-02-14T08:04:44.382Z,101948.11
2019-02-14T08:07:35.967Z,101956.33
2019-02-14T08:10:07.965Z,101957.54
2019-02-14T08:12:39.936Z,101956.98
2019-02-14T08:15:13.303Z,101959.39
2019-02-14T08:17:43.279Z,101961.42
2019-02-14T08:20:41.387Z,101970.17
2019-02-14T08:23:11.262Z,101969.78
2019-02-14T08:28:23.014Z,101985.95
2019-02-14T08:30:53.023Z,101973.58
2019-02-14T08:34:01.026Z,101974.41
2019-02-14T08:37:14.758Z,101966.80
2019-02-14T08:43:39.122Z,101971.62
2019-02-14T08:49:20.761Z,101986.02
2019-02-14T08:51:59.599Z,101983.22
2019-02-14T08:54:31.637Z,101974.36
2019-02-14T08:57:04.416Z,101981.27
2019-02-14T08:59:34.635Z,101971.91
2019-02-14T09:02:04.818Z,101960.67
2019-02-14T09:04:39.539Z,101953.52
2019-02-14T09:10:15.173Z,101950.72
2019-02-14T09:13:23.389Z,101949.17
2019-02-14T09:16:12.143Z,101948.63
2019-02-14T09:19:04.547Z,101948.56
2019-02-14T09:24:47.488Z,101940.66
2019-02-14T09:27:19.805Z,101941.14
2019-02-14T09:30:04.966Z,101937.98
2019-02-14T09:32:44.695Z,101936.39
2019-02-14T09:35:14.744Z,101925.23
2019-02-14T09:38:07.744Z,101925.34
2019-02-14T09:44:26.527Z,101929.39
2019-02-14T09:47:21.240Z,101924.07
2019-02-14T09:50:12.594Z,101924.38
2019-02-14T09:59:02.137Z,101935.53
2019-02-14T10:01:47.214Z,101930.75
2019-02-14T10:04:09.337Z,101920.20
2019-02-14T10:06:39.439Z,101931.23
2019-02-14T10:09:31.621Z,101938.91
2019-02-14T10:15:31.690Z,101934.42
2019-02-14T10:21:30.716Z,101946.31
2019-02-14T10:24:25.138Z,101949.95
2019-02-14T10:27:14.489Z,101945.48
2019-02-14T10:30:25.602Z,101951.70
2019-02-14T10:35:58.467Z,101948.20
2019-02-14T10:38:48.256Z,101948.20
2019-02-14T10:41:19.081Z,101943.89
2019-02-14T10:50:04.083Z,101933.44
2019-02-14T10:55:57.564Z,101933.23
2019-02-14T10:58:28.351Z,101934.52
2019-02-14T11:07:26.377Z,101931.46
2019-02-14T11:13:37.873Z,101934.87
2019-02-14T11:16:29.098Z,101920.80
2019-02-14T11:25:17.168Z,101919.11
2019-02-14T11:30:54.450Z,101910.12
2019-02-14T11:33:45.351Z,101908.75
2019-02-14T11:36:35.175Z,101908.75
2019-02-14T11:45:37.243Z,101894.14
2019-02-14T11:48:08.266Z,101901.29
2019-02-14T11:53:45.710Z,101888.70
2019-02-14T11:59:48.167Z,101882.14
2019-02-14T12:02:38.066Z,101883.67
2019-02-14T12:05:33.237Z,101884.68
2019-02-14T12:10:57.129Z,101880.96
2019-02-14T12:16:54.896Z,101886.05
2019-02-14T12:19:33.213Z,101875.58
2019-02-14T12:28:07.196Z,101863.59
2019-02-14T12:40:03.904Z,101839.61
2019-02-14T12:43:15.442Z,101830.35
2019-02-14T12:46:25.200Z,101826.77
2019-02-14T12:52:08.735Z,101823.59
2019-02-14T12:54:39.130Z,101826.47
2019-02-14T13:03:05.611Z,101820.39
2019-02-14T13:05:37.865Z,101820.39
2019-02-14T13:08:29.717Z,101818.84
2019-02-14T13:11:01.017Z,101806.72
2019-02-14T13:13:40.031Z,101800.99
2019-02-14T13:19:22.525Z,101793.84
2019-02-14T13:22:30.266Z,101793.83
2019-02-14T13:25:21.963Z,101781.33
2019-02-14T13:28:11.598Z,101779.86
2019-02-14T13:31:00.822Z,101772.25
2019-02-14T13:33:50.560Z,101766.52
2019-02-14T13:36:40.354Z,101777.01
2019-02-14T13:39:32.709Z,101774.12
2019-02-14T13:42:22.887Z,101771.41
2019-02-14T13:44:52.947Z,101768.89
2019-02-14T13:47:23.169Z,101766.08
2019-02-14T13:50:31.772Z,101758.50
2019-02-14T13:53:22.847Z,101756.84
2019-02-14T14:02:24.308Z,101764.38
2019-02-14T14:04:55.297Z,101766.27
2019-02-14T14:07:26.268Z,101751.30
2019-02-14T14:09:58.248Z,101753.71
2019-02-14T14:12:53.214Z,101751.36
2019-02-14T14:15:26.385Z,101747.20
2019-02-14T14:18:17.534Z,101735.73
2019-02-14T14:26:05.982Z,101726.99
2019-02-14T14:29:01.199Z,101729.86
2019-02-14T14:34:36.732Z,101729.91
2019-02-14T14:37:38.388Z,101724.09
2019-02-14T14:40:28.413Z,101723.87
2019-02-14T14:46:27.660Z,101720.97
2019-02-14T14:49:19.187Z,101724.88
2019-02-14T14:52:09.152Z,101724.03
2019-02-14T14:54:45.173Z,101724.03
2019-02-14T14:57:36.663Z,101724.49
2019-02-14T15:00:46.457Z,101712.70
2019-02-14T15:06:17.480Z,101720.37
2019-02-14T15:09:09.228Z,101722.72
2019-02-14T15:14:32.220Z,101722.63
2019-02-14T15:17:04.347Z,101728.03
2019-02-14T15:20:13.803Z,101723.61
2019-02-14T15:22:44.602Z,101724.23
2019-02-14T15:25:16.630Z,101720.45
2019-02-14T15:27:47.507Z,101718.86
2019-02-14T15:30:18.357Z,101722.67
2019-02-14T15:39:11.869Z,101719.00
2019-02-14T15:50:15.070Z,101699.38
2019-02-14T15:53:07.946Z,101702.07
2019-02-14T16:11:34.008Z,101691.80
2019-02-14T16:16:25.216Z,101694.93
2019-02-14T16:19:36.502Z,101698.80
2019-02-14T16:22:30.055Z,101698.11
2019-02-14T16:28:41.776Z,101692.13
2019-02-14T16:31:13.665Z,101711.22
2019-02-14T16:37:06.278Z,101702.83
2019-02-14T16:41:37.406Z,101713.36
2019-02-14T16:51:51.101Z,101717.73
2019-02-14T16:54:36.302Z,101720.30
2019-02-14T16:57:14.391Z,101723.21
2019-02-14T17:12:03.121Z,101739.10
2019-02-14T17:14:53.017Z,101733.42
2019-02-14T17:17:34.290Z,101728.88
2019-02-14T17:20:43.318Z,101730.38
2019-02-14T17:23:31.696Z,101727.66
2019-02-14T17:35:41.146Z,101729.81
2019-02-14T17:41:22.334Z,101731.73
2019-02-14T17:44:12.523Z,101736.13
2019-02-14T17:49:53.709Z,101737.09
2019-02-14T17:52:44.423Z,101745.33
2019-02-14T17:55:24.132Z,101741.73
2019-02-14T17:58:07.214Z,101738.24
2019-02-14T18:00:48.576Z,101748.56
2019-02-14T18:03:32.392Z,101751.76
2019-02-14T18:06:23.435Z,101743.69
2019-02-14T18:09:04.941Z,101751.53
2019-02-14T18:14:56.518Z,101749.20
2019-02-14T18:17:27.169Z,101747.75
2019-02-14T18:20:25.467Z,101754.66
2019-02-14T18:23:15.554Z,101736.72
2019-02-14T18:29:06.455Z,101744.78
2019-02-14T18:34:22.394Z,101707.36
2019-02-14T18:40:12.197Z,101742.55
2019-02-14T18:45:42.898Z,101737.48
2019-02-14T18:48:17.376Z,101734.35
2019-02-14T18:54:19.741Z,101733.62
2019-02-14T18:56:51.321Z,101731.53
2019-02-14T18:59:21.304Z,101728.37
2019-02-14T19:04:44.418Z,101733.43
2019-02-14T19:10:35.410Z,101731.26
2019-02-14T19:16:16.495Z,101728.59
2019-02-14T19:19:20.911Z,101726.22
2019-02-14T19:22:01.382Z,101737.53
2019-02-14T19:24:51.854Z,101730.50
2019-02-14T19:39:47.942Z,101721.63
2019-02-14T19:45:15.930Z,101715.80
2019-02-14T19:47:50.067Z,101708.52
2019-02-14T19:50:39.267Z,101703.56
2019-02-14T19:56:56.626Z,101712.41
2019-02-14T20:02:47.654Z,101702.80
2019-02-14T20:05:57.019Z,101701.84
2019-02-14T20:09:06.031Z,101701.63
2019-02-14T20:11:38.457Z,101702.09
2019-02-14T20:25:54.856Z,101701.77
2019-02-14T20:28:35.664Z,101700.68
2019-02-14T20:40:48.290Z,101704.66
2019-02-14T20:43:40.162Z,101714.23
2019-02-14T20:49:19.035Z,101713.79
2019-02-14T20:51:55.146Z,101711.81
2019-02-14T20:57:32.059Z,101717.78
2019-02-14T21:06:31.002Z,101716.66
2019-02-14T21:09:19.916Z,101718.31
2019-02-14T21:14:54.270Z,101722.20
2019-02-14T21:17:24.153Z,101724.59
2019-02-14T21:20:33.823Z,101727.67
2019-02-14T21:23:03.825Z,101727.67
2019-02-14T21:37:44.760Z,101715.70
2019-02-14T21:44:03.842Z,101729.56
2019-02-14T21:46:36.116Z,101724.23
2019-02-14T21:49:25.142Z,101716.47
2019-02-14T21:55:39.305Z,101723.84
2019-02-14T21:58:17.634Z,101722.52
2019-02-14T22:01:02.290Z,101719.14
2019-02-14T22:03:44.147Z,101720.00
2019-02-14T22:06:34.877Z,101724.61
2019-02-14T22:09:15.979Z,101728.86
2019-02-14T22:12:38.553Z,101731.16
2019-02-14T22:15:14.693Z,101727.88
2019-02-14T22:18:03.683Z,101726.05
2019-02-14T22:20:33.723Z,101718.57
2019-02-14T22:23:22.675Z,101720.03
2019-02-14T22:25:52.535Z,101715.20
2019-02-14T22:31:26.616Z,101709.64
2019-02-14T22:34:15.666Z,101712.13
2019-02-14T22:39:53.324Z,101709.24
2019-02-14T22:45:44.604Z,101704.75
2019-02-14T22:48:14.625Z,101705.63
2019-02-14T22:51:05.070Z,101709.84
2019-02-14T22:53:35.111Z,101708.14
2019-02-14T22:56:05.188Z,101709.88
2019-02-14T23:01:34.667Z,101710.00
2019-02-14T23:04:04.645Z,101714.06
2019-02-14T23:06:54.722Z,101714.99
2019-02-14T23:09:24.836Z,101707.59
2019-02-14T23:11:54.711Z,101714.44
2019-02-14T23:14:58.798Z,101713.88
2019-02-14T23:20:10.884Z,101711.37
2019-02-14T23:22:41.013Z,101718.72
2019-02-14T23:25:11.071Z,101713.62
2019-02-14T23:27:41.378Z,101713.96
2019-02-14T23:33:21.853Z,101711.03
2019-02-14T23:36:12.884Z,101708.13
2019-02-14T23:39:23.219Z,101709.58
2019-02-14T23:42:23.880Z,101714.04
2019-02-14T23:48:02.088Z,101710.72
2019-02-14T23:51:12.954Z,101708.30
2019-02-14T23:54:05.906Z,101708.05
